createdAt,value
2024-02-12T00:01:47.339Z,1.63
2024-02-12T00:04:15.446Z,1.00
2024-02-12T00:06:43.428Z,1.30
2024-02-12T00:09:10.451Z,1.17
2024-02-12T00:11:38.262Z,1.33
2024-02-12T00:14:06.283Z,1.37
2024-02-12T00:16:33.273Z,1.23
2024-02-12T00:19:02.005Z,1.20
2024-02-12T00:21:30.339Z,1.10
2024-02-12T00:23:58.309Z,1.20
2024-02-12T00:26:27.329Z,1.37
2024-02-12T00:28:57.694Z,1.53
2024-02-12T00:31:24.634Z,1.40
2024-02-12T00:33:51.830Z,1.60
2024-02-12T00:36:19.382Z,2.07
2024-02-12T00:38:46.368Z,1.93
2024-02-12T00:41:21.985Z,1.80
2024-02-12T00:43:49.196Z,1.60
2024-02-12T00:46:19.843Z,1.20
2024-02-12T00:48:47.287Z,1.10
2024-02-12T00:51:15.432Z,1.00
2024-02-12T00:53:43.407Z,1.20
2024-02-12T00:56:10.336Z,1.20
2024-02-12T00:58:37.169Z,1.07
2024-02-12T01:01:05.538Z,1.10
2024-02-12T01:03:33.555Z,1.20
2024-02-12T01:06:00.387Z,1.03
2024-02-12T01:08:27.927Z,1.20
2024-02-12T01:10:55.206Z,1.20
2024-02-12T01:13:22.549Z,1.13
2024-02-12T01:15:50.460Z,1.13
2024-02-12T01:18:18.844Z,1.00
2024-02-12T01:20:46.397Z,1.00
2024-02-12T01:23:16.672Z,0.97
2024-02-12T01:25:44.274Z,1.03
2024-02-12T01:28:11.887Z,1.00
2024-02-12T01:30:38.726Z,1.10
2024-02-12T01:33:07.658Z,0.90
2024-02-12T01:35:35.202Z,0.90
2024-02-12T01:38:02.035Z,0.97
2024-02-12T01:40:28.858Z,1.20
2024-02-12T01:42:55.598Z,1.10
2024-02-12T01:45:28.396Z,0.90
2024-02-12T01:48:00.611Z,1.00
2024-02-12T01:50:28.557Z,0.90
2024-02-12T01:52:55.963Z,1.30
2024-02-12T01:55:24.652Z,1.10
2024-02-12T01:57:52.229Z,1.30
2024-02-12T02:00:22.938Z,1.60
2024-02-12T02:02:50.943Z,1.10
2024-02-12T02:05:17.926Z,1.20
2024-02-12T02:07:48.952Z,1.30
2024-02-12T02:10:16.225Z,0.90
2024-02-12T02:12:43.905Z,1.03
2024-02-12T02:15:11.213Z,1.00
2024-02-12T02:17:38.210Z,1.00
2024-02-12T02:20:08.493Z,1.10
2024-02-12T02:22:35.733Z,1.00
2024-02-12T02:25:02.873Z,1.00
2024-02-12T02:27:29.548Z,1.00
2024-02-12T02:29:56.267Z,1.00
2024-02-12T02:32:23.445Z,1.20
2024-02-12T02:34:50.560Z,1.07
2024-02-12T02:37:17.447Z,1.20
2024-02-12T02:39:44.333Z,1.00
2024-02-12T02:42:12.888Z,1.20
2024-02-12T02:44:40.764Z,0.80
2024-02-12T02:47:09.796Z,0.90
2024-02-12T02:49:36.750Z,1.00
2024-02-12T02:52:04.154Z,1.20
2024-02-12T02:54:31.851Z,1.00
2024-02-12T02:56:58.637Z,0.90
2024-02-12T02:59:26.574Z,1.00
2024-02-12T03:01:53.645Z,1.03
2024-02-12T03:04:20.594Z,1.47
2024-02-12T03:06:47.281Z,1.10
2024-02-12T03:09:15.072Z,1.10
2024-02-12T03:11:42.038Z,1.10
2024-02-12T03:14:10.375Z,1.00
2024-02-12T03:16:37.957Z,1.20
2024-02-12T03:19:06.526Z,1.00
2024-02-12T03:21:34.951Z,1.10
2024-02-12T03:24:01.879Z,1.10
2024-02-12T03:26:28.802Z,1.07
2024-02-12T03:28:55.529Z,0.83
2024-02-12T03:31:22.256Z,1.10
2024-02-12T03:33:51.056Z,1.00
2024-02-12T03:36:18.130Z,0.90
2024-02-12T03:38:46.088Z,1.23
2024-02-12T03:41:25.689Z,1.20
2024-02-12T03:43:56.541Z,1.10
2024-02-12T03:46:29.434Z,1.00
2024-02-12T03:49:15.051Z,1.10
2024-02-12T03:52:00.552Z,1.23
2024-02-12T03:54:46.067Z,1.10
2024-02-12T03:57:32.268Z,1.00
2024-02-12T03:59:58.984Z,1.00
2024-02-12T04:02:25.783Z,1.00
2024-02-12T04:04:52.974Z,1.00
2024-02-12T04:07:23.126Z,1.20
2024-02-12T04:09:50.356Z,1.10
2024-02-12T04:12:18.293Z,1.07
2024-02-12T04:14:45.432Z,1.13
2024-02-12T04:17:15.417Z,1.10
2024-02-12T04:19:44.379Z,1.03
2024-02-12T04:22:11.914Z,1.30
2024-02-12T04:24:42.499Z,1.20
2024-02-12T04:27:11.038Z,1.00
2024-02-12T04:29:41.235Z,1.20
2024-02-12T04:32:15.867Z,1.17
2024-02-12T04:34:43.364Z,1.03
2024-02-12T04:37:12.033Z,1.40
2024-02-12T04:39:39.314Z,1.10
2024-02-12T04:42:06.735Z,1.03
2024-02-12T04:44:33.737Z,1.20
2024-02-12T04:47:01.572Z,1.17
2024-02-12T04:49:33.137Z,1.20
2024-02-12T04:51:59.959Z,0.90
2024-02-12T04:54:27.425Z,1.20
2024-02-12T04:56:54.768Z,1.10
2024-02-12T04:59:22.775Z,1.10
2024-02-12T05:01:49.767Z,1.00
2024-02-12T05:04:20.411Z,1.33
2024-02-12T05:06:47.404Z,1.50
2024-02-12T05:09:14.572Z,1.23
2024-02-12T05:11:41.458Z,1.30
2024-02-12T05:14:08.379Z,1.40
2024-02-12T05:16:36.258Z,1.37
2024-02-12T05:19:22.599Z,1.17
2024-02-12T05:22:09.066Z,1.20
2024-02-12T05:24:36.312Z,1.20
2024-02-12T05:27:03.536Z,1.17
2024-02-12T05:29:30.448Z,1.20
2024-02-12T05:31:57.995Z,1.10
2024-02-12T05:34:25.321Z,1.30
2024-02-12T05:36:54.800Z,1.27
2024-02-12T05:39:22.586Z,1.20
2024-02-12T05:41:50.023Z,1.27
2024-02-12T05:44:18.234Z,1.53
2024-02-12T05:46:45.090Z,1.30
2024-02-12T05:49:15.483Z,1.30
2024-02-12T05:51:45.712Z,1.30
2024-02-12T05:54:12.734Z,1.20
2024-02-12T05:56:41.614Z,1.10
2024-02-12T05:59:10.781Z,1.13
2024-02-12T06:01:37.913Z,1.20
2024-02-12T06:04:05.081Z,1.10
2024-02-12T06:06:32.294Z,1.27
2024-02-12T06:08:59.520Z,1.37
2024-02-12T06:11:26.402Z,1.30
2024-02-12T06:13:53.787Z,1.57
2024-02-12T06:16:20.539Z,1.60
2024-02-12T06:18:48.107Z,1.50
2024-02-12T06:21:15.189Z,1.20
2024-02-12T06:23:42.051Z,1.50
2024-02-12T06:26:08.946Z,1.20
2024-02-12T06:28:36.712Z,1.37
2024-02-12T06:31:03.974Z,1.40
2024-02-12T06:33:30.802Z,1.53
2024-02-12T06:35:58.000Z,1.30
2024-02-12T06:38:25.066Z,1.50
2024-02-12T06:40:51.858Z,1.30
2024-02-12T06:43:18.595Z,1.50
2024-02-12T06:45:45.436Z,1.40
2024-02-12T06:48:12.402Z,1.37
2024-02-12T06:50:39.634Z,1.20
2024-02-12T06:53:08.023Z,1.27
2024-02-12T06:55:35.341Z,1.60
2024-02-12T06:58:02.141Z,1.70
2024-02-12T07:00:29.858Z,1.37
2024-02-12T07:02:57.262Z,1.90
2024-02-12T07:05:24.344Z,1.77
2024-02-12T07:07:51.234Z,1.30
2024-02-12T07:10:18.800Z,1.80
2024-02-12T07:12:47.995Z,3.77
2024-02-12T07:15:15.791Z,2.03
2024-02-12T07:17:42.882Z,1.70
2024-02-12T07:20:11.482Z,1.40
2024-02-12T07:22:38.322Z,1.90
2024-02-12T07:25:05.794Z,1.73
2024-02-12T07:27:32.783Z,1.73
2024-02-12T07:30:00.374Z,1.60
2024-02-12T07:32:27.326Z,1.60
2024-02-12T07:34:54.337Z,1.90
2024-02-12T07:37:21.110Z,2.00
2024-02-12T07:39:50.167Z,1.93
2024-02-12T07:42:17.014Z,1.70
2024-02-12T07:44:44.379Z,1.70
2024-02-12T07:47:12.059Z,1.90
2024-02-12T07:49:38.954Z,1.70
2024-02-12T07:52:06.126Z,1.80
2024-02-12T07:54:35.961Z,1.40
2024-02-12T07:57:05.029Z,1.90
2024-02-12T07:59:31.944Z,1.87
2024-02-12T08:01:58.875Z,2.03
2024-02-12T08:04:26.053Z,2.00
2024-02-12T08:06:53.298Z,1.90
2024-02-12T08:09:20.233Z,1.67
2024-02-12T08:11:47.230Z,1.93
2024-02-12T08:14:16.180Z,1.87
2024-02-12T08:16:45.961Z,1.83
2024-02-12T08:19:12.909Z,1.73
2024-02-12T08:21:39.970Z,1.90
2024-02-12T08:24:06.926Z,2.00
2024-02-12T08:26:33.893Z,1.77
2024-02-12T08:29:00.893Z,2.00
2024-02-12T08:31:28.407Z,2.10
2024-02-12T08:33:58.054Z,1.87
2024-02-12T08:36:25.425Z,1.60
2024-02-12T08:38:52.525Z,1.80
2024-02-12T08:41:26.365Z,1.37
2024-02-12T08:43:57.651Z,1.90
2024-02-12T08:46:24.651Z,1.63
2024-02-12T08:48:51.648Z,1.80
2024-02-12T08:51:20.225Z,2.20
2024-02-12T08:53:47.785Z,1.80
2024-02-12T08:56:19.158Z,1.80
2024-02-12T08:58:46.525Z,1.73
2024-02-12T09:01:13.994Z,1.67
2024-02-12T09:03:44.775Z,1.70
2024-02-12T09:06:14.070Z,1.87
2024-02-12T09:08:42.563Z,1.87
2024-02-12T09:11:10.532Z,2.00
2024-02-12T09:13:41.244Z,1.80
2024-02-12T09:16:11.245Z,2.57
2024-02-12T09:18:39.185Z,2.03
2024-02-12T09:21:06.886Z,1.90
2024-02-12T09:23:34.391Z,1.43
2024-02-12T09:26:01.817Z,1.60
2024-02-12T09:28:29.362Z,1.80
2024-02-12T09:31:01.978Z,1.70
2024-02-12T09:33:32.486Z,1.53
2024-02-12T09:35:59.572Z,1.60
2024-02-12T09:38:26.838Z,1.60
2024-02-12T09:40:58.957Z,1.60
2024-02-12T09:43:27.101Z,1.70
2024-02-12T09:45:55.885Z,1.70
2024-02-12T09:48:23.243Z,1.40
2024-02-12T09:50:51.479Z,1.90
2024-02-12T09:53:20.702Z,2.60
2024-02-12T09:55:49.065Z,2.17
2024-02-12T09:58:21.791Z,2.00
2024-02-12T10:00:49.349Z,2.03
2024-02-12T10:03:16.447Z,1.90
2024-02-12T10:05:45.232Z,1.50
2024-02-12T10:08:20.083Z,1.57
2024-02-12T10:10:47.522Z,1.80
2024-02-12T10:13:14.653Z,1.70
2024-02-12T10:15:42.129Z,1.80
2024-02-12T10:18:13.770Z,1.90
2024-02-12T10:20:41.234Z,1.73
2024-02-12T10:23:11.073Z,1.30
2024-02-12T10:25:46.930Z,1.60
2024-02-12T10:28:15.219Z,1.70
2024-02-12T10:30:43.915Z,1.70
2024-02-12T10:33:12.406Z,1.60
2024-02-12T10:35:48.807Z,1.70
2024-02-12T10:38:17.185Z,2.07
2024-02-12T10:40:59.862Z,2.03
2024-02-12T10:43:27.896Z,2.03
2024-02-12T10:45:55.070Z,1.67
2024-02-12T10:48:22.845Z,1.67
2024-02-12T10:50:50.933Z,1.67
2024-02-12T10:53:18.351Z,2.03
2024-02-12T10:55:46.181Z,1.67
2024-02-12T10:58:14.683Z,1.87
2024-02-12T11:00:49.320Z,1.93
2024-02-12T11:03:19.503Z,1.50
2024-02-12T11:05:46.696Z,1.70
2024-02-12T11:08:16.909Z,1.80
2024-02-12T11:10:44.929Z,1.60
2024-02-12T11:13:17.426Z,1.80
2024-02-12T11:15:52.042Z,1.70
2024-02-12T11:18:27.909Z,1.87
2024-02-12T11:20:59.127Z,1.80
2024-02-12T11:23:27.171Z,1.80
2024-02-12T11:25:57.165Z,1.87
2024-02-12T11:28:27.464Z,2.40
2024-02-12T11:30:55.010Z,1.93
2024-02-12T11:33:25.685Z,2.23
2024-02-12T11:36:09.401Z,1.80
2024-02-12T11:38:50.925Z,1.90
2024-02-12T11:41:18.122Z,1.70
2024-02-12T11:43:47.618Z,1.60
2024-02-12T11:46:17.113Z,1.80
2024-02-12T11:48:44.745Z,1.90
2024-02-12T11:51:20.389Z,1.63
2024-02-12T11:53:48.965Z,1.73
2024-02-12T11:56:16.279Z,2.20
2024-02-12T11:58:43.997Z,1.90
2024-02-12T12:01:13.544Z,1.80
2024-02-12T12:03:40.805Z,1.87
2024-02-12T12:06:14.328Z,2.10
2024-02-12T12:08:42.402Z,2.10
2024-02-12T12:11:10.860Z,2.20
2024-02-12T12:13:38.695Z,2.20
2024-02-12T12:16:07.354Z,1.70
2024-02-12T12:18:34.501Z,1.67
2024-02-12T12:21:01.646Z,2.27
2024-02-12T12:23:28.674Z,2.30
2024-02-12T12:25:57.925Z,2.27
2024-02-12T12:28:25.006Z,2.20
2024-02-12T12:30:51.892Z,1.97
2024-02-12T12:33:18.698Z,2.03
2024-02-12T12:35:45.594Z,2.13
2024-02-12T12:38:13.268Z,2.00
2024-02-12T12:40:40.144Z,2.20
2024-02-12T12:43:12.066Z,1.83
2024-02-12T12:45:40.168Z,1.90
2024-02-12T12:48:08.727Z,2.17
2024-02-12T12:50:35.694Z,2.20
2024-02-12T12:53:02.852Z,2.60
2024-02-12T12:55:29.688Z,2.03
2024-02-12T12:57:56.733Z,1.70
2024-02-12T13:00:28.060Z,2.30
2024-02-12T13:02:55.630Z,2.50
2024-02-12T13:05:24.087Z,2.50
2024-02-12T13:08:16.808Z,2.93
2024-02-12T13:10:44.686Z,2.47
2024-02-12T13:13:16.051Z,2.10
2024-02-12T13:15:45.692Z,1.83
2024-02-12T13:18:17.833Z,2.80
2024-02-12T13:20:47.721Z,2.27
2024-02-12T13:23:15.648Z,2.37
2024-02-12T13:25:42.526Z,2.40
2024-02-12T13:28:13.129Z,2.37
2024-02-12T13:30:40.159Z,2.37
2024-02-12T13:33:10.061Z,2.10
2024-02-12T13:35:39.890Z,2.17
2024-02-12T13:38:13.308Z,2.20
2024-02-12T13:40:41.041Z,2.23
2024-02-12T13:43:11.729Z,1.67
2024-02-12T13:45:40.858Z,2.00
2024-02-12T13:48:11.162Z,2.27
2024-02-12T13:50:39.070Z,1.90
2024-02-12T13:53:07.226Z,2.13
2024-02-12T13:55:36.062Z,2.03
2024-02-12T13:58:03.481Z,1.70
2024-02-12T14:00:50.345Z,1.73
2024-02-12T14:03:18.272Z,1.43
2024-02-12T14:05:45.269Z,1.50
2024-02-12T14:08:13.092Z,1.47
2024-02-12T14:10:40.310Z,1.57
2024-02-12T14:13:07.316Z,2.00
2024-02-12T14:16:03.796Z,1.80
2024-02-12T14:18:24.321Z,1.53
2024-02-12T14:20:55.013Z,1.40
2024-02-12T14:23:23.425Z,1.30
2024-02-12T14:25:50.421Z,1.80
2024-02-12T14:28:17.216Z,1.50
2024-02-12T14:30:47.081Z,1.90
2024-02-12T14:33:15.730Z,1.60
2024-02-12T14:35:47.599Z,1.97
2024-02-12T14:38:15.253Z,2.00
2024-02-12T14:40:42.738Z,1.80
2024-02-12T14:43:12.658Z,2.17
2024-02-12T14:45:40.690Z,2.47
2024-02-12T14:48:10.001Z,2.00
2024-02-12T14:50:37.259Z,2.37
2024-02-12T14:53:07.149Z,2.83
2024-02-12T14:55:35.773Z,2.60
2024-02-12T14:58:03.096Z,2.67
2024-02-12T15:00:29.884Z,2.30
2024-02-12T15:02:57.466Z,2.43
2024-02-12T15:05:29.137Z,1.90
2024-02-12T15:07:59.821Z,1.57
2024-02-12T15:10:26.962Z,1.40
2024-02-12T15:12:55.956Z,1.60
2024-02-12T15:15:22.845Z,1.60
2024-02-12T15:17:54.019Z,1.60
2024-02-12T15:20:22.857Z,1.60
2024-02-12T15:22:51.792Z,1.60
2024-02-12T15:25:20.800Z,1.60
2024-02-12T15:27:49.739Z,1.40
2024-02-12T15:30:20.294Z,1.63
2024-02-12T15:32:50.696Z,1.70
2024-02-12T15:35:19.897Z,1.60
2024-02-12T15:37:48.184Z,1.80
2024-02-12T15:40:23.488Z,1.70
2024-02-12T15:42:54.239Z,1.83
2024-02-12T15:45:26.249Z,1.70
2024-02-12T15:47:58.752Z,1.50
2024-02-12T15:50:27.473Z,1.70
2024-02-12T15:52:56.104Z,1.70
2024-02-12T15:55:24.185Z,1.97
2024-02-12T15:57:51.474Z,2.10
2024-02-12T16:00:27.647Z,2.63
2024-02-12T16:02:57.070Z,2.70
2024-02-12T16:06:02.798Z,2.50
2024-02-12T16:08:30.335Z,2.00
2024-02-12T16:11:00.209Z,2.50
2024-02-12T16:13:28.204Z,2.10
2024-02-12T16:15:56.380Z,2.43
2024-02-12T16:18:24.124Z,2.73
2024-02-12T16:20:52.308Z,2.00
2024-02-12T16:23:20.978Z,2.17
2024-02-12T16:25:48.335Z,2.10
2024-02-12T16:28:15.243Z,2.73
2024-02-12T16:30:43.970Z,2.30
2024-02-12T16:33:11.531Z,2.40
2024-02-12T16:35:41.606Z,2.50
2024-02-12T16:38:09.392Z,2.40
2024-02-12T16:40:36.454Z,2.13
2024-02-12T16:43:03.655Z,2.27
2024-02-12T16:45:31.598Z,2.47
2024-02-12T16:48:02.525Z,2.37
2024-02-12T16:50:30.367Z,2.40
2024-02-12T16:52:57.469Z,2.53
2024-02-12T16:55:25.435Z,2.17
2024-02-12T16:57:52.751Z,2.40
2024-02-12T17:00:21.493Z,2.30
2024-02-12T17:02:49.139Z,2.00
2024-02-12T17:05:16.860Z,2.20
2024-02-12T17:07:53.484Z,3.13
2024-02-12T17:10:29.190Z,2.33
2024-02-12T17:12:56.638Z,2.23
2024-02-12T17:15:25.280Z,2.50
2024-02-12T17:17:57.541Z,2.40
2024-02-12T17:20:25.817Z,2.40
2024-02-12T17:22:52.694Z,3.03
2024-02-12T17:25:19.832Z,3.10
2024-02-12T17:27:47.112Z,2.77
2024-02-12T17:30:15.660Z,2.70
2024-02-12T17:32:43.143Z,2.57
2024-02-12T17:35:13.436Z,4.20
2024-02-12T17:37:43.118Z,2.60
2024-02-12T17:40:12.549Z,2.47
2024-02-12T17:42:39.969Z,2.10
2024-02-12T17:45:11.079Z,2.40
2024-02-12T17:47:41.548Z,2.73
2024-02-12T17:50:11.368Z,2.40
2024-02-12T17:52:38.360Z,2.47
2024-02-12T17:55:05.446Z,3.10
2024-02-12T17:57:33.591Z,3.03
2024-02-12T18:00:01.054Z,2.40
2024-02-12T18:02:28.128Z,2.63
2024-02-12T18:04:55.214Z,4.93
2024-02-12T18:07:21.935Z,4.40
2024-02-12T18:09:49.174Z,4.93
2024-02-12T18:12:20.393Z,5.40
2024-02-12T18:14:49.510Z,7.87
2024-02-12T18:17:16.525Z,4.93
2024-02-12T18:19:49.786Z,4.20
2024-02-12T18:22:21.522Z,3.80
2024-02-12T18:24:49.038Z,3.97
2024-02-12T18:27:16.283Z,4.90
2024-02-12T18:29:44.042Z,4.77
2024-02-12T18:32:11.262Z,5.53
2024-02-12T18:34:38.573Z,6.47
2024-02-12T18:37:06.935Z,4.57
2024-02-12T18:39:33.968Z,3.73
2024-02-12T18:42:01.094Z,3.93
2024-02-12T18:44:29.861Z,3.83
2024-02-12T18:46:58.384Z,3.67
2024-02-12T18:49:25.616Z,3.83
2024-02-12T18:51:52.444Z,3.93
2024-02-12T18:54:19.453Z,4.00
2024-02-12T18:56:46.428Z,3.93
2024-02-12T18:59:13.423Z,4.33
2024-02-12T19:01:40.681Z,4.83
2024-02-12T19:04:07.542Z,3.83
2024-02-12T19:06:34.535Z,3.70
2024-02-12T19:09:10.487Z,6.33
2024-02-12T19:11:37.975Z,5.00
2024-02-12T19:14:05.286Z,4.20
2024-02-12T19:16:34.325Z,3.47
2024-02-12T19:19:01.676Z,3.57
2024-02-12T19:21:28.622Z,4.47
2024-02-12T19:23:55.457Z,4.00
2024-02-12T19:26:22.610Z,3.77
2024-02-12T19:28:49.873Z,3.70
2024-02-12T19:31:17.446Z,3.43
2024-02-12T19:33:44.454Z,3.50
2024-02-12T19:36:12.207Z,3.97
2024-02-12T19:38:39.651Z,3.63
2024-02-12T19:41:07.424Z,3.87
2024-02-12T19:43:34.478Z,3.80
2024-02-12T19:46:01.191Z,4.80
2024-02-12T19:48:28.089Z,19.57
2024-02-12T19:50:55.836Z,14.83
2024-02-12T19:53:26.007Z,5.40
2024-02-12T19:55:53.624Z,4.37
2024-02-12T19:58:21.622Z,3.57
2024-02-12T20:00:48.851Z,3.47
2024-02-12T20:03:15.884Z,3.53
2024-02-12T20:05:42.814Z,3.47
2024-02-12T20:08:09.783Z,3.10
2024-02-12T20:10:37.096Z,3.67
2024-02-12T20:13:06.558Z,3.07
2024-02-12T20:15:35.997Z,3.60
2024-02-12T20:18:07.093Z,3.27
2024-02-12T20:20:34.763Z,3.40
2024-02-12T20:23:01.968Z,3.20
2024-02-12T20:25:29.045Z,2.80
2024-02-12T20:27:56.092Z,3.30
2024-02-12T20:30:24.088Z,3.90
2024-02-12T20:32:52.771Z,3.17
2024-02-12T20:35:21.656Z,3.10
2024-02-12T20:37:48.840Z,3.60
2024-02-12T20:40:19.098Z,3.47
2024-02-12T20:42:45.952Z,3.30
2024-02-12T20:45:15.023Z,3.53
2024-02-12T20:47:42.196Z,3.50
2024-02-12T20:50:11.763Z,3.90
2024-02-12T20:52:39.103Z,3.60
2024-02-12T20:55:08.253Z,3.80
2024-02-12T20:57:35.855Z,4.27
2024-02-12T21:00:06.471Z,3.73
2024-02-12T21:02:33.786Z,4.27
2024-02-12T21:05:01.079Z,3.93
2024-02-12T21:07:28.061Z,4.60
2024-02-12T21:09:54.940Z,3.67
2024-02-12T21:12:21.715Z,4.40
2024-02-12T21:14:50.184Z,4.80
2024-02-12T21:17:19.635Z,3.87
2024-02-12T21:19:46.997Z,4.60
2024-02-12T21:22:14.374Z,4.10
2024-02-12T21:24:41.650Z,4.27
2024-02-12T21:27:10.671Z,4.57
2024-02-12T21:29:42.511Z,4.37
2024-02-12T21:32:11.979Z,4.33
2024-02-12T21:34:39.155Z,4.37
2024-02-12T21:37:10.227Z,3.90
2024-02-12T21:39:42.724Z,4.10
2024-02-12T21:42:24.141Z,4.27
2024-02-12T21:44:52.143Z,4.17
2024-02-12T21:47:20.368Z,4.10
2024-02-12T21:49:47.682Z,4.00
2024-02-12T21:52:15.383Z,4.63
2024-02-12T21:54:42.757Z,4.40
2024-02-12T21:57:09.892Z,4.33
2024-02-12T21:59:38.146Z,3.97
2024-02-12T22:02:05.299Z,4.27
2024-02-12T22:04:32.195Z,4.17
2024-02-12T22:06:58.949Z,4.27
2024-02-12T22:09:25.686Z,4.73
2024-02-12T22:11:52.744Z,4.80
2024-02-12T22:14:19.592Z,5.30
2024-02-12T22:16:46.748Z,5.63
2024-02-12T22:19:14.465Z,6.07
2024-02-12T22:21:44.240Z,5.20
2024-02-12T22:24:11.175Z,5.63
2024-02-12T22:26:37.990Z,5.13
2024-02-12T22:29:04.811Z,4.40
2024-02-12T22:31:31.718Z,4.67
2024-02-12T22:33:58.665Z,4.80
2024-02-12T22:36:25.899Z,4.30
2024-02-12T22:38:52.715Z,3.23
2024-02-12T22:41:21.782Z,3.70
2024-02-12T22:43:48.696Z,3.70
2024-02-12T22:46:15.471Z,3.60
2024-02-12T22:48:43.640Z,3.50
2024-02-12T22:51:10.691Z,3.67
2024-02-12T22:53:37.521Z,3.63
2024-02-12T22:56:06.316Z,3.90
2024-02-12T22:58:34.134Z,3.87
2024-02-12T23:01:00.994Z,3.70
2024-02-12T23:03:29.167Z,4.27
2024-02-12T23:05:56.506Z,4.00
2024-02-12T23:08:23.430Z,4.30
2024-02-12T23:10:50.286Z,3.70
2024-02-12T23:13:18.052Z,3.83
2024-02-12T23:15:44.768Z,3.47
2024-02-12T23:18:12.108Z,4.10
2024-02-12T23:20:39.273Z,3.97
2024-02-12T23:23:06.486Z,3.50
2024-02-12T23:25:34.447Z,3.87
2024-02-12T23:28:02.885Z,3.83
2024-02-12T23:30:30.145Z,3.87
2024-02-12T23:32:57.275Z,3.73
2024-02-12T23:35:24.488Z,3.47
2024-02-12T23:37:51.369Z,3.80
2024-02-12T23:40:18.767Z,3.13
2024-02-12T23:42:46.845Z,4.30
2024-02-12T23:45:17.236Z,4.37
2024-02-12T23:47:45.066Z,4.00
2024-02-12T23:50:17.913Z,3.70
2024-02-12T23:52:44.974Z,4.03
2024-02-12T23:55:12.807Z,4.30
2024-02-12T23:57:39.941Z,4.23
